Robinson, South Carolina
Current Conditions -  °F | °C
As of 10:35 PM on Monday 26 Jan 2015 (Local Time) from KHVS Reporting Station
Overcast Overcast  
Wind Chill: 44°   Ceiling: 4600
Heat Index: 46°   Visibility: 10mi
Dew Point: 25°   Wind: 5mph
Humidity: 43%   Direction: 310°NW
Pressure: 29.74"   Gusts: NA
Location:  34.5053°N, 80.249°W
Report Text: KHVS 270335Z AUTO 31004KT 10SM SCT041 BKN046 OVC080 08/M04 A2974 RMK AO2
Loading
Personal Weather Stations






























Interactive Weather Map New forecast layout! Learn more

10-Day Weather Forecast

Advertisements
Track Severe Weather on mobile